KBQK/BQK METAR and TAF weather

Enter ICAO airport designator
Station Type Date Time Source
KBQK METAR 2019/12/11 15:15 UTC NOAA

KBQK 111515Z AUTO 34007KT 10SM OVC007 13/12 A3032 RMK AO2 T01310120


Station Type Date Time Source
KBQK Decoded METAR 2019/12/11 15:15 UTC NOAA

Brunswick / Glynco, GA, United States (KBQK) 31-15N 081-28W
Dec 11, 2019 - 10:15 AM EST / 2019.12.11 1515 UTC
Wind: from the NNW (340 degrees) at 8 MPH (7 KT):0
Visibility: 10 mile(s):0
Sky conditions: overcast
Temperature: 55.6 F (13.1 C)
Dew Point: 53.6 F (12.0 C)
Relative Humidity: 93%
Pressure (altimeter): 30.32 in. Hg (1026 hPa)
ob: KBQK 111515Z AUTO 34007KT 10SM OVC007 13/12 A3032 RMK AO2 T01310120
cycle: 15

Station Type Date Time Source
KBQK TAF UTC NOAA

Error!

Example: see airport list